Terminal Aerodrome Forecast
Issued by NWS Denver/Boulder, CO

Home | Current Version | Previous Version | Text Only | Print | Product List | Glossary On
Versions: 1 2 3 4 5 6 7 8 9 10 11 12 13 14 15 16 17 18 19 20 21 22 23 24 25 26 27 28 29 30 31 32 33 34 35 36 37 38 39 40 41 42 43
000
FTUS45 KBOU 281619 AAC
TAFDEN
TAF AMD
KDEN 281619Z 2816/2918 31015KT P6SM BKN007 OVC010
     FM281700 35015KT P6SM VCSH BKN007 OVC040
     FM281900 02010KT 6SM -SHRA BKN010 OVC030
      TEMPO 2821/2901 03013KT 3SM -SHRA BR OVC010
     FM290100 06012KT 3SM -RA BR BKN007 OVC015
     FM290400 03013G22KT 1SM -RA BR OVC008
      TEMPO 2904/2908 1/4SM RA FZFG VV004
     FM290800 02011KT 3SM -RASN BR BKN005 OVC010=

USA.gov is the U.S. government's official web portal to all federal, state and local government web resources and services.